首页
METAR-TAF:

METAR-TAF

机场 :

Sandspit, 不列颠哥伦比亚, 加拿大

纬度: 53-15N, 经度: 131-49W, 海拔: 6米

当前天气观测

该预报发布于43分钟前的16:00 UTC
风速5节,风向西
温度 16°C
湿度 82%
气压 1020 hPa
能見度: 14.5公里
阴天层高于5000英尺

METAR: CYZP 211600Z AUTO 26005KT 9SM OVC050 16/13 A3011 RMK SLP198

时间: 09:43 (16:43 UTC)

预报

该预报发布于1小时和18分钟前的15:25 UTC
预报有效从21日的 15点(UTC)到 22日的 01点(UTC)
风速5节,风向西转西南
能見度: 10公里
散云层高于1500英尺
多云层高于5000英尺
短暂存在
从 21日的 15点(UTC)到 21日的 23点(UTC)
多云层高于1500英尺
成为
从 21日的 18点(UTC)到 21日的 20点(UTC)
风速10节,风向东南
从 21日的 2300点(UTC)
风速10节,风向西转西南
能見度: 10公里
多云层高于4000英尺
短暂存在
从 21日的 23点(UTC)到 22日的 01点(UTC)
散云层高于4000英尺

TAF: CYZP 211525Z 2115/2201 25005KT P6SM SCT015 BKN050 TEMPO 2115/2123 BKN015 BECMG 2118/2120 13010KT FM212300 24010KT P6SM BKN040 TEMPO 2123/2201 SCT040 RMK FCST BASED ON AUTO OBS. NXT FCST BY 211900Z

超过4000个机场的气象观测和天气预报(METAR&TAF报告)。

可查询的气象台以黄色和红色小点在地图上表示。

将鼠标移到小点上方,可查看气象台名称。

然后点击查看天气观测和预报。

如需切换地图:点击带黑十字的绿色按钮放大地图;点击带横线的绿色按钮缩小地图;或者点击绿色箭头查看邻近地区的地图。


METAR-TAF: